Home > Products > Valid Products > TAF

000
FTUS46 KSGX 210800 AAA
TAFSAN
TAF AMD
KSAN 210805Z 2108/2212 VRB04KT P6SM OVC022
     FM211730 VRB04KT P6SM SCT025
     FM211900 28010KT P6SM FEW025
     FM220300 VRB04KT P6SM SCT018
     FM220600 VRB04KT P6SM OVC017=



000
FTUS46 KSGX 210700 AAA
TAFSNA
TAF AMD
KSNA 210710Z 2107/2206 VRB04KT P6SM OVC022
     FM211700 23007KT P6SM FEW025
     FM220300 VRB04KT P6SM FEW015=



000
FTUS46 KSGX 210500
TAFSNA
TAF
KSNA 210520Z 2106/2206 VRB04KT P6SM FEW015
     FM210800 VRB04KT P6SM OVC015
     FM211700 23007KT P6SM FEW015
     FM220300 VRB04KT P6SM FEW010=



000
FTUS46 KSGX 210500
TAFTRM
TAF
KTRM 210520Z 2106/2206 33011KT P6SM SKC
     FM211000 VRB05KT P6SM SKC
     FM212000 14009KT P6SM SKC
     FM220400 33010KT P6SM SKC=



000
FTUS46 KSGX 210500
TAFPSP
TAF
KPSP 210520Z 2106/2206 32012KT P6SM SKC
     FM210700 VRB05KT P6SM SKC
     FM220200 32010KT P6SM SKC=



000
FTUS46 KSGX 210500
TAFCRQ
TAF
KCRQ 210520Z 2106/2206 VRB04KT P6SM FEW012
     FM210630 VRB04KT P6SM OVC012
     FM211800 27007KT P6SM FEW012
     FM220500 VRB04KT P6SM OVC009=



000
FTUS46 KSGX 210500
TAFONT
TAF
KONT 210520Z 2106/2212 VRB04KT P6SM SKC
     FM211200 VRB04KT P6SM OVC010
     FM211600 VRB04KT P6SM SCT012
     FM212100 26010KT P6SM SKC
     FM220400 VRB04KT P6SM SKC=



000
FTUS46 KSGX 210500
TAFSAN
TAF
KSAN 210520Z 2106/2212 VRB04KT P6SM FEW015
     FM210700 VRB04KT P6SM OVC015
     FM211730 VRB04KT P6SM SCT015
     FM211900 28010KT P6SM FEW015
     FM220300 VRB04KT P6SM SCT011
     FM220600 VRB04KT P6SM OVC011=



000
FTUS46 KSGX 210300 AAA
TAFPSP
TAF AMD
KPSP 210310Z 2103/2124 32018G25KT P6SM SKC
     FM210500 32012KT P6SM SKC
     FM210700 VRB05KT P6SM SKC=



000
FTUS46 KSGX 210200 AAA
TAFCRQ
TAF AMD
KCRQ 210250Z 2103/2124 VRB04KT P6SM FEW012
     FM210600 VRB04KT P6SM OVC012
     FM211800 27007KT P6SM FEW015=



000
FTUS46 KSGX 210200 AAA
TAFSAN
TAF AMD
KSAN 210249Z 2103/2206 VRB04KT P6SM FEW015
     FM210630 VRB04KT P6SM OVC015
     FM211730 VRB04KT P6SM SCT015
     FM211900 28010KT P6SM FEW015
     FM220300 VRB04KT P6SM OVC015=



000
FTUS46 KSGX 202300
TAFCRQ
TAF
KCRQ 202329Z 2100/2124 VRB04KT P6SM FEW080
     FM210400 VRB04KT P6SM OVC012
     FM211800 27007KT P6SM FEW015=



000
FTUS46 KSGX 202300
TAFSAN
TAF
KSAN 202329Z 2100/2206 28010KT P6SM FEW015 SCT080
     FM210300 VRB04KT P6SM SCT015
     FM210400 VRB04KT P6SM OVC015
     FM211730 VRB04KT P6SM SCT015
     FM211900 28010KT P6SM FEW015
     FM220300 VRB04KT P6SM OVC015=



000
FTUS46 KSGX 202300
TAFONT
TAF
KONT 202329Z 2100/2206 25010KT P6SM SCT060
     FM210400 VRB04KT P6SM SKC
     FM211100 VRB04KT P6SM OVC012
     FM211630 VRB04KT P6SM SCT015
     FM212100 26010KT P6SM SKC
     FM220400 VRB04KT P6SM SKC=



000
FTUS46 KSGX 202300
TAFPSP
TAF
KPSP 202329Z 2100/2124 VRB05KT P6SM SCT100
     FM210100 32012KT P6SM SKC
     FM210700 VRB05KT P6SM SKC=



000
FTUS46 KSGX 202300
TAFTRM
TAF
KTRM 202329Z 2100/2124 14009KT P6SM SCT100
     FM210300 33011KT P6SM SKC
     FM211000 VRB05KT P6SM SKC
     FM212000 14009KT P6SM SKC=



000
FTUS46 KSGX 202300
TAFSNA
TAF
KSNA 202329Z 2100/2124 22006KT P6SM FEW015
     FM210800 VRB04KT P6SM OVC015
     FM211700 23007KT P6SM FEW015=



000
FTUS46 KSGX 202000 AAA
TAFSAN
TAF AMD
KSAN 202035Z 2021/2124 28010KT P6SM FEW013 SCT029
     FM210300 VRB04KT P6SM OVC015
     FM211730 VRB05KT P6SM SCT020
     FM211900 28010KT P6SM SCT020=



000
FTUS46 KSGX 202000 AAA
TAFONT
TAF AMD
KONT 202000Z 2020/2124 25012KT P6SM SCT080
     FM210400 VRB05KT P6SM SKC
     FM210900 VRB04KT P6SM OVC014
     FM211630 VRB04KT P6SM SCT018
     FM212100 26012KT P6SM SKC=



000
FTUS46 KSGX 201700
TAFONT
TAF
KONT 201722Z 2018/2124 VRB05KT P6SM SCT018 BKN080
     FM202100 25012KT P6SM SCT080
     FM210400 VRB05KT P6SM SKC
     FM210900 VRB04KT P6SM OVC014
     FM211630 VRB04KT P6SM SCT018
     FM212100 26012KT P6SM SKC=



000
FTUS46 KSGX 201700
TAFSNA
TAF
KSNA 201722Z 2018/2118 22009KT P6SM SCT025
     FM210300 21005KT P6SM SCT020
     FM210600 VRB04KT P6SM OVC018
     FM211700 VRB05KT P6SM SCT020=



000
FTUS46 KSGX 201700
TAFTRM
TAF
KTRM 201722Z 2018/2118 VRB06KT P6SM SCT110
     FM202100 14009KT P6SM SCT110
     FM210300 33011KT P6SM SKC
     FM211000 VRB06KT P6SM SKC=



000
FTUS46 KSGX 201700
TAFSAN
TAF
KSAN 201722Z 2018/2124 VRB05KT P6SM OVC025
     FM201900 28010KT P6SM SCT025
     FM210300 VRB04KT P6SM OVC018
     FM211730 VRB05KT P6SM SCT020
     FM211900 28010KT P6SM SCT020=



000
FTUS46 KSGX 201700
TAFPSP
TAF
KPSP 201722Z 2018/2118 VRB06KT P6SM SCT110
     FM210100 32012KT P6SM SKC
     FM210700 VRB06KT P6SM SKC=



000
FTUS46 KSGX 201700
TAFCRQ
TAF
KCRQ 201722Z 2018/2118 VRB05KT P6SM OVC016
     FM201900 25009KT P6SM SCT020
     FM210300 VRB04KT P6SM OVC012=



000
FTUS46 KSGX 201500 AAA
TAFONT
TAF AMD
KONT 201535Z 2016/2118 VRB03KT P6SM BKN015
     FM201730 VRB05KT P6SM SCT018
     FM202100 25012KT P6SM SKC
     FM210400 24005KT P6SM SKC
     FM210900 VRB04KT P6SM OVC014
     FM211600 VRB04KT P6SM SCT018=



000
FTUS46 KSGX 201400 AAA
TAFSAN
TAF AMD
KSAN 201444Z 2015/2118 VRB04KT P6SM OVC021
     FM201800 27010KT P6SM SCT022
     FM210300 VRB04KT P6SM OVC018
     FM211700 VRB05KT P6SM SCT020=



000
FTUS46 KSGX 201100
TAFTRM
TAF
KTRM 201120Z 2012/2112 VRB06KT P6SM SKC
     FM201800 14009KT P6SM SKC
     FM210300 33011KT P6SM SKC
     FM211000 VRB05KT P6SM SKC=



000
FTUS46 KSGX 201100
TAFSAN
TAF
KSAN 201120Z 2012/2118 VRB04KT P6SM OVC021
     FM201800 27010KT P6SM SCT022
     FM210300 VRB04KT P6SM OVC018
     FM211700 VRB05KT P6SM SCT020=



000
FTUS46 KSGX 201100
TAFSNA
TAF
KSNA 201120Z 2012/2112 VRB04KT P6SM OVC018
     FM201500 VRB04KT P6SM BKN021
     FM201800 22009KT P6SM SCT025
     FM210300 21005KT P6SM SCT020
     FM210600 VRB04KT P6SM OVC018=



000
FTUS46 KSGX 201100
TAFCRQ
TAF
KCRQ 201120Z 2012/2112 VRB03KT P6SM OVC016
     FM201800 25008KT P6SM SCT018
     FM210300 VRB04KT P6SM OVC012=



000
FTUS46 KSGX 201100
TAFPSP
TAF
KPSP 201120Z 2012/2112 VRB05KT P6SM SKC
     FM201900 11007KT P6SM SKC
     FM210100 32012KT P6SM SKC
     FM210700 32007KT P6SM SKC=



000
FTUS46 KSGX 201100
TAFONT
TAF
KONT 201120Z 2012/2118 VRB03KT P6SM FEW018 FEW090
      TEMPO 2012/2015 BKN015
     FM202100 25012KT P6SM SKC
     FM210400 24005KT P6SM SKC
     FM210900 VRB04KT P6SM OVC014
     FM211600 VRB04KT P6SM SCT018=



000
FTUS46 KSGX 201000 AAA
TAFONT
TAF AMD
KONT 201042Z 2011/2112 VRB03KT P6SM FEW018 FEW090
     FM201200 VRB03KT P6SM OVC015
     FM201700 24005KT P6SM SCT018
     FM202100 26012KT P6SM SKC
     FM210400 24005KT P6SM SKC
     FM210900 VRB04KT P6SM OVC010=



000
FTUS46 KSGX 200900 AAA
TAFSNA
TAF AMD
KSNA 200920Z 2009/2106 20005KT P6SM SCT018
     FM201030 VRB04KT P6SM OVC015
     FM201800 22009KT P6SM SKC
     FM210300 21005KT P6SM SCT015
     FM210500 VRB04KT P6SM OVC015=



000
FTUS46 KSGX 200800 AAA
TAFSAN
TAF AMD
KSAN 200851Z 2009/2112 VRB04KT P6SM OVC020
     FM201800 29010KT P6SM SCT022
     FM210300 VRB04KT P6SM OVC018=



000
FTUS46 KSGX 200500 AAA
TAFCRQ
TAF AMD
KCRQ 200540Z 2006/2106 VRB03KT P6SM OVC015
     FM201800 26008KT P6SM SCT018
     FM210300 VRB04KT P6SM OVC012=



000
FTUS46 KSGX 200500
TAFONT
TAF
KONT 200527Z 2006/2112 24005KT P6SM SKC
     FM201100 VRB04KT P6SM OVC012
     FM201700 24005KT P6SM SCT015
     FM202100 26012KT P6SM SKC
     FM210400 24005KT P6SM SKC
     FM210900 VRB04KT P6SM OVC010=



000
FTUS46 KSGX 200500
TAFCRQ
TAF
KCRQ 200527Z 2006/2106 VRB03KT P6SM SCT015
     FM200700 VRB03KT P6SM OVC015
     FM201800 26008KT P6SM SCT018
     FM210300 VRB04KT P6SM OVC012=



000
FTUS46 KSGX 200500
TAFPSP
TAF
KPSP 200527Z 2006/2106 32011KT P6SM SKC
     FM200730 VRB05KT P6SM SKC
     FM201900 11007KT P6SM SKC
     FM210100 32012KT P6SM SKC=



000
FTUS46 KSGX 200500
TAFTRM
TAF
KTRM 200527Z 2006/2106 33009KT P6SM SKC
     FM201000 VRB05KT P6SM SKC
     FM201800 14009KT P6SM SKC
     FM210300 33009KT P6SM SKC=



000
FTUS46 KSGX 200500
TAFSNA
TAF
KSNA 200527Z 2006/2106 20005KT P6SM SCT018
     FM200800 VRB04KT P6SM OVC015
     FM201800 22009KT P6SM SKC
     FM210300 21005KT P6SM SCT015
     FM210500 VRB04KT P6SM OVC015=



000
FTUS46 KSGX 200500
TAFSAN
TAF
KSAN 200527Z 2006/2112 VRB04KT P6SM OVC019
     FM200900 VRB04KT P6SM OVC020
     FM201800 29010KT P6SM SCT022
     FM210300 VRB04KT P6SM OVC015=



000
FTUS46 KSGX 200200 AAA
TAFSAN
TAF AMD
KSAN 200254Z 2003/2106 29006KT P6SM SCT018
     FM200430 VRB03KT P6SM OVC018
     FM201800 29010KT P6SM SCT020
     FM210300 VRB04KT P6SM BKN015=



000
FTUS46 KSGX 200200 AAA
TAFCRQ
TAF AMD
KCRQ 200248Z 2003/2024 VRB04KT P6SM OVC015
     FM201800 26008KT P6SM SCT025=



000
FTUS46 KSGX 192300
TAFSNA
TAF
KSNA 192326Z 2000/2024 21009KT P6SM SCT035
     FM200300 20005KT P6SM SCT025
     FM200700 VRB04KT P6SM OVC025
     FM201800 22009KT P6SM SKC=



000
FTUS46 KSGX 192300
TAFTRM
TAF
KTRM 192326Z 2000/2024 14008KT P6SM SKC
     FM200300 33008KT P6SM SKC
     FM201000 VRB05KT P6SM SKC
     FM201800 14009KT P6SM SKC=



000
FTUS46 KSGX 192300
TAFSAN
TAF
KSAN 192326Z 2000/2106 30010KT P6SM SCT030
     FM200200 29006KT P6SM SCT025
     FM200500 VRB03KT P6SM OVC025
     FM201800 29010KT P6SM SCT025
     FM210300 VRB04KT P6SM BKN020=



000
FTUS46 KSGX 192300
TAFONT
TAF
KONT 192326Z 2000/2106 25011KT P6SM SCT035
     FM200400 24005KT P6SM SKC
     FM201100 VRB04KT P6SM OVC020
     FM201700 24005KT P6SM SCT025
     FM202100 26012KT P6SM SKC
     FM210400 24005KT P6SM SKC=



000
FTUS46 KSGX 192300
TAFCRQ
TAF
KCRQ 192326Z 2000/2024 27008KT P6SM SCT025
     FM200200 VRB04KT P6SM SCT025
     FM200500 VRB03KT P6SM OVC020
     FM201800 26008KT P6SM SCT025=



000
FTUS46 KSGX 192300
TAFPSP
TAF
KPSP 192326Z 2000/2024 32011KT P6SM SKC
     FM200700 VRB05KT P6SM SKC
     FM201900 11007KT P6SM SKC=



000
FTUS46 KSGX 192000 AAA
TAFSAN
TAF AMD
KSAN 192048Z 1921/2024 30010KT P6SM SCT035
     FM200200 VRB04KT P6SM BKN026
     FM201700 30006KT P6SM SCT030=



000
FTUS46 KSGX 191700
TAFCRQ
TAF
KCRQ 191722Z 1918/2018 27006KT P6SM SCT025 BKN035
     FM192000 25009KT P6SM SCT035
     FM200000 VRB05KT P6SM BKN025=



000
FTUS46 KSGX 191700
TAFSAN
TAF
KSAN 191722Z 1918/2024 30006KT P6SM BKN035
     FM192000 29009KT P6SM SCT035
     FM200100 VRB04KT P6SM BKN026
     FM201700 30006KT P6SM SCT030=



000
FTUS46 KSGX 191700
TAFTRM
TAF
KTRM 191722Z 1918/2018 14008KT P6SM SKC
     FM200000 33010KT P6SM SKC
     FM201000 VRB05KT P6SM SKC=



000
FTUS46 KSGX 191700
TAFPSP
TAF
KPSP 191722Z 1918/2018 VRB06KT P6SM SKC
     FM192100 32010G18KT P6SM SKC
     FM200700 VRB05KT P6SM SKC=



000
FTUS46 KSGX 191700
TAFSNA
TAF
KSNA 191722Z 1918/2018 23010KT P6SM SCT035
     FM200400 VRB04KT P6SM BKN026=



000
FTUS46 KSGX 191700
TAFONT
TAF
KONT 191722Z 1918/2024 VRB04KT P6SM BKN035
     FM192000 27011KT P6SM SCT035
     FM200300 26007KT P6SM SKC
     FM200600 VRB04KT P6SM OVC025
     FM201800 24005KT P6SM SCT030=



000
FTUS46 KSGX 191600 AAA
TAFSNA
TAF AMD
KSNA 191616Z 1916/2012 VRB04KT P6SM BKN035
     FM191800 22010KT P6SM SCT040
     FM200200 VRB04KT P6SM SCT025
     FM200400 VRB04KT P6SM OVC022=



000
FTUS46 KSGX 191500 AAB
TAFONT
TAF AMD
KONT 191514Z 1915/2018 VRB04KT P6SM BKN035
     FM191700 27006KT P6SM SCT035
     FM192100 26011KT P6SM SKC
     FM200400 VRB04KT P6SM SCT025
     FM200600 VRB04KT P6SM OVC020
     FM201700 VRB05KT P6SM SCT025=



000
FTUS46 KSGX 191500 AAB
TAFCRQ
TAF AMD
KCRQ 191513Z 1915/2012 VRB04KT P6SM SCT025 OVC030
     FM191800 25009KT P6SM SCT035
     FM200000 VRB04KT P6SM OVC020=



000
FTUS46 KSGX 191400 AAA
TAFSAN
TAF AMD
KSAN 191453Z 1915/2018 30006KT P6SM BKN030
     FM191800 29009KT P6SM SCT035
     FM200100 VRB04KT P6SM OVC025=



000
FTUS46 KSGX 191400 AAA
TAFCRQ
TAF AMD
KCRQ 191416Z 1914/2012 VRB04KT P6SM SCT025 OVC035
     FM191800 25009KT P6SM SCT030
     FM200000 VRB04KT P6SM OVC020=



000
FTUS46 KSGX 191300 AAA
TAFTRM
TAF AMD
KTRM 191336Z 1914/2012 33011KT P6SM SKC
     FM191600 VRB05KT P6SM SKC
     FM200300 33010KT P6SM SKC
     FM201000 VRB05KT P6SM SKC=



000
FTUS46 KSGX 191300 AAA
TAFONT
TAF AMD
KONT 191335Z 1914/2018 VRB04KT P6SM SCT018 OVC030
     FM191700 27006KT P6SM SCT030
     FM192100 26011KT P6SM SKC
     FM200400 VRB04KT P6SM SCT025
     FM200600 VRB04KT P6SM OVC020
     FM201700 VRB05KT P6SM SCT025=



000
FTUS46 KSGX 191100
TAFSAN
TAF
KSAN 191120Z 1912/2018 VRB04KT P6SM BKN025
     FM191800 29009KT P6SM SCT025
     FM200100 VRB04KT P6SM OVC025=



000
FTUS46 KSGX 191100
TAFSNA
TAF
KSNA 191120Z 1912/2012 VRB04KT P6SM OVC025
     FM191800 22010KT P6SM SCT025
     FM200200 VRB04KT P6SM SCT025
     FM200400 VRB04KT P6SM OVC022=



000
FTUS46 KSGX 191100
TAFCRQ
TAF
KCRQ 191120Z 1912/2012 VRB04KT P6SM OVC021
     FM191800 25009KT P6SM SCT025
     FM200000 VRB04KT P6SM OVC020=



000
FTUS46 KSGX 191100
TAFTRM
TAF
KTRM 191120Z 1912/2012 33011KT P6SM SKC
     FM191300 VRB05KT P6SM SKC
     FM200300 33010KT P6SM SKC
     FM201000 VRB05KT P6SM SKC=



000
FTUS46 KSGX 191100
TAFONT
TAF
KONT 191120Z 1912/2018 VRB04KT P6SM OVC019
     FM191700 27006KT P6SM SCT020
     FM192100 26011KT P6SM SKC
     FM200400 VRB04KT P6SM SCT025
     FM200600 VRB04KT P6SM OVC020
     FM201700 VRB05KT P6SM SCT025=



000
FTUS46 KSGX 191100
TAFPSP
TAF
KPSP 191120Z 1912/2012 VRB05KT P6SM SKC
     FM192300 33012G20KT P6SM SKC
     FM200600 VRB05KT P6SM SKC=



000
FTUS46 KSGX 190900 AAA
TAFONT
TAF AMD
KONT 190936Z 1910/2012 VRB04KT P6SM OVC021
     FM191700 VRB04KT P6SM SCT025
     FM192100 26011KT P6SM SKC
     FM200400 VRB04KT P6SM SCT025
     FM200700 VRB04KT P6SM OVC020=



000
FTUS46 KSGX 190900 AAA
TAFCRQ
TAF AMD
KCRQ 190936Z 1910/2006 VRB04KT P6SM OVC015
      TEMPO 1910/1912 SCT015
     FM191800 26009KT P6SM SCT020
     FM200000 VRB04KT P6SM OVC020=



000
FTUS46 KSGX 190900 AAA
TAFSAN
TAF AMD
KSAN 190905Z 1909/2012 VRB06KT P6SM BKN025
      TEMPO 1909/1911 SCT025
     FM191800 29009KT P6SM SCT025
     FM200100 VRB04KT P6SM OVC025=



000
FTUS46 KSGX 190500
TAFSAN
TAF
KSAN 190534Z 1906/2012 VRB06KT P6SM OVC020
     FM191800 29009KT P6SM SCT025
     FM200100 VRB04KT P6SM OVC025=



000
FTUS46 KSGX 190500
TAFONT
TAF
KONT 190534Z 1906/2012 VRB04KT P6SM OVC015
     FM191700 VRB04KT P6SM SCT020
     FM192100 26011KT P6SM SKC
     FM200400 VRB04KT P6SM SCT020
     FM200700 VRB04KT P6SM OVC020=



000
FTUS46 KSGX 190500
TAFTRM
TAF
KTRM 190534Z 1906/2006 33015G20KT P6SM SKC
     FM190800 33011KT P6SM SKC
     FM191300 VRB05KT P6SM SKC=



000
FTUS46 KSGX 190500
TAFPSP
TAF
KPSP 190534Z 1906/2006 33011KT P6SM SKC
     FM190800 VRB05KT P6SM SKC
     FM192100 33012G20KT P6SM SKC=



000
FTUS46 KSGX 190500
TAFCRQ
TAF
KCRQ 190534Z 1906/2006 VRB04KT P6SM OVC015
     FM191800 26009KT P6SM SCT020
     FM200000 VRB04KT P6SM OVC020=



000
FTUS46 KSGX 190500
TAFSNA
TAF
KSNA 190534Z 1906/2006 VRB04KT P6SM OVC018
     FM190900 VRB04KT P6SM OVC020
     FM191800 22010KT P6SM SCT025
     FM200200 VRB04KT P6SM SCT025
     FM200400 VRB04KT P6SM OVC020=



000
FTUS46 KSGX 190300 AAA
TAFSNA
TAF AMD
KSNA 190353Z 1904/1924 VRB04KT P6SM OVC015
     FM191800 22010KT P6SM SCT020=



000
FTUS46 KSGX 190300 AAA
TAFSAN
TAF AMD
KSAN 190309Z 1903/2006 VRB05KT P6SM OVC016
     FM190900 VRB04KT P6SM OVC022
     FM191800 29009KT P6SM SCT025
     FM200100 VRB04KT P6SM OVC025=



000
FTUS46 KSGX 182300
TAFTRM
TAF
KTRM 182330Z 1900/1924 31010G18KT P6SM SKC
     FM190300 33015G25KT P6SM SKC
     FM190800 33011KT P6SM SKC
     FM191300 VRB05KT P6SM SKC=



000
FTUS46 KSGX 182300
TAFPSP
TAF
KPSP 182330Z 1900/1924 33015G25KT P6SM SKC
     FM190400 33011KT P6SM SKC
     FM190700 VRB05KT P6SM SKC
     FM192100 33012G20KT P6SM SKC=



000
FTUS46 KSGX 182300
TAFSAN
TAF
KSAN 182330Z 1900/2006 29010KT P6SM BKN018
     FM190200 VRB04KT P6SM BKN018
     FM190500 VRB04KT P6SM OVC022
     FM191800 29009KT P6SM SCT025
     FM200100 VRB04KT P6SM OVC025=



000
FTUS46 KSGX 182300
TAFSNA
TAF
KSNA 182330Z 1900/1924 23008KT P6SM FEW020
     FM190200 VRB04KT P6SM SCT020
     FM190500 VRB04KT P6SM OVC022
     FM191800 22010KT P6SM SCT025=



000
FTUS46 KSGX 182300
TAFCRQ
TAF
KCRQ 182330Z 1900/1924 26009KT P6SM BKN015
     FM190100 VRB04KT P6SM OVC017
     FM191800 26009KT P6SM SCT020=



000
FTUS46 KSGX 182300
TAFONT
TAF
KONT 182330Z 1900/2006 25011KT P6SM SKC
     FM190400 VRB04KT P6SM SCT015
     FM190800 VRB04KT P6SM BKN015
     FM191700 VRB04KT P6SM SCT020
     FM192100 26011KT P6SM SKC
     FM200400 VRB04KT P6SM SCT020=



000
FTUS46 KSGX 182100 AAA
TAFTRM
TAF AMD
KTRM 182129Z 1821/1918 VRB05KT P6SM SKC
     FM182300 31010G18KT P6SM SKC
     FM190300 33015G25KT P6SM SKC
     FM190800 33011KT P6SM SKC
     FM191300 VRB05KT P6SM SKC=



000
FTUS46 KSGX 182000 AAA
TAFSAN
TAF AMD
KSAN 182033Z 1821/1924 29009KT P6SM SCT025
     FM190100 VRB04KT P6SM BKN018
     FM190900 VRB03KT P6SM OVC022
     FM191800 29009KT P6SM SCT025=



000
FTUS46 KSGX 181700
TAFSAN
TAF
KSAN 181728Z 1818/1924 29009KT P6SM SCT025
     FM190100 VRB04KT P6SM BKN018
     FM190900 VRB03KT P6SM OVC022
     FM191800 29009KT P6SM SCT025=



000
FTUS46 KSGX 181700
TAFPSP
TAF
KPSP 181728Z 1818/1918 VRB05KT P6SM SKC
     FM182000 33012G20KT P6SM SKC
     FM182300 33015G25KT P6SM SKC
     FM190400 33011KT P6SM SKC
     FM190700 VRB06KT P6SM SKC=



000
FTUS46 KSGX 181700
TAFCRQ
TAF
KCRQ 181728Z 1818/1918 27009KT P6SM SCT015
     FM190100 VRB04KT P6SM BKN017=



000
FTUS46 KSGX 181700
TAFSNA
TAF
KSNA 181728Z 1818/1918 VRB04KT P6SM FEW015
     FM181900 23009KT P6SM SCT015
     FM190200 VRB04KT P6SM BKN017
     FM190900 VRB03KT P6SM OVC022=



000
FTUS46 KSGX 181700
TAFTRM
TAF
KTRM 181728Z 1818/1918 VRB05KT P6SM FEW100
     FM182000 33010G18KT P6SM SKC
     FM190300 33015G25KT P6SM SKC
     FM191000 33011KT P6SM SKC
     FM191300 VRB03KT P6SM SKC=



000
FTUS46 KSGX 181700
TAFONT
TAF
KONT 181728Z 1818/1924 VRB04KT P6SM SKC
     FM182000 26011KT P6SM SKC
     FM190400 VRB04KT P6SM SCT015
     FM190800 VRB04KT P6SM BKN015
     FM191700 VRB04KT P6SM SCT018
     FM192100 26011KT P6SM SKC=



000
FTUS46 KSGX 181500 AAA
TAFCRQ
TAF AMD
KCRQ 181543Z 1816/1912 VRB04KT P6SM BKN015
     FM181615 27009KT P6SM SCT015
     FM190100 VRB04KT P6SM BKN017=



000
FTUS46 KSGX 181400 AAA
TAFSAN
TAF AMD
KSAN 181422Z 1814/1918 VRB03KT P6SM BKN020
     FM181730 29009KT P6SM SCT025
     FM190100 VRB04KT P6SM BKN018
     FM190900 VRB03KT P6SM OVC022=



000
FTUS46 KSGX 181200 AAA
TAFSNA
TAF AMD
KSNA 181250Z 1813/1912 VRB04KT P6SM FEW015
      TEMPO 1813/1815 BKN015
     FM181900 23009KT P6SM SCT015
     FM190200 VRB04KT P6SM BKN017
     FM190900 VRB03KT P6SM OVC022=



000
FTUS46 KSGX 181100
TAFPSP
TAF
KPSP 181120Z 1812/1912 VRB05KT P6SM SKC
     FM182000 33012G20KT P6SM SKC
     FM182300 33015G25KT P6SM SKC
     FM190400 33011KT P6SM SKC
     FM190700 VRB06KT P6SM SKC=



000
FTUS46 KSGX 181100
TAFTRM
TAF
KTRM 181120Z 1812/1912 VRB05KT P6SM FEW100
     FM182000 33010G18KT P6SM SKC
     FM190300 33015G25KT P6SM SKC
     FM191000 33011KT P6SM SKC=



000
FTUS46 KSGX 181100
TAFSAN
TAF
KSAN 181120Z 1812/1918 VRB03KT P6SM FEW012
      TEMPO 1812/1815 BKN012
     FM181900 29009KT P6SM SCT015
     FM190100 VRB04KT P6SM BKN018
     FM190900 VRB03KT P6SM OVC022=



000
FTUS46 KSGX 181100
TAFONT
TAF
KONT 181120Z 1812/1918 VRB04KT P6SM SKC
     FM182000 26011KT P6SM SKC
     FM190400 VRB04KT P6SM SCT015
     FM190800 VRB04KT P6SM BKN015
     FM191700 VRB04KT P6SM SCT018=



000
FTUS46 KSGX 181100
TAFSNA
TAF
KSNA 181120Z 1812/1912 VRB04KT P6SM FEW012
     FM181900 23009KT P6SM SCT015
     FM190200 VRB04KT P6SM BKN017
     FM190900 VRB03KT P6SM OVC022=



000
FTUS46 KSGX 181100
TAFCRQ
TAF
KCRQ 181120Z 1812/1912 VRB04KT P6SM FEW012
      TEMPO 1812/1815 BKN010
     FM181900 27009KT P6SM SCT015
     FM190000 VRB04KT P6SM BKN017
     FM190900 VRB03KT P6SM OVC020=



000
FTUS46 KSGX 180900 AAA
TAFSAN
TAF AMD
KSAN 180906Z 1809/1912 VRB03KT P6SM SKC
     FM181300 VRB04KT P6SM BKN012
     FM181700 VRB04KT P6SM SCT015
     FM181900 29009KT P6SM SCT020
     FM190200 VRB04KT P6SM BKN025=



    US Dept of Commerce
    National Oceanic and Atmospheric Administration
    National Weather Service
    1325 East West Highway
    Silver Spring, MD 20910
    Page Author: NWS Internet Services Team
Disclaimer
Information Quality
Credits
Glossary
Privacy Policy
Freedom of Information Act (FOIA)
About Us
Career Opportunities